createdAt,value
2023-01-19T00:01:27.270Z,51.03
2023-01-19T00:03:54.732Z,51.60
2023-01-19T00:06:21.956Z,45.22
2023-01-19T00:08:52.262Z,47.58
2023-01-19T00:11:19.841Z,46.60
2023-01-19T00:13:50.739Z,47.20
2023-01-19T00:16:19.422Z,46.38
2023-01-19T00:18:47.505Z,47.65
2023-01-19T00:21:14.972Z,44.83
2023-01-19T00:23:43.827Z,45.97
2023-01-19T00:26:11.069Z,46.83
2023-01-19T00:28:38.460Z,46.38
2023-01-19T00:31:07.326Z,48.45
2023-01-19T00:33:35.096Z,47.47
2023-01-19T00:36:02.213Z,65.93
2023-01-19T00:38:29.819Z,50.58
2023-01-19T00:40:56.981Z,53.55
2023-01-19T00:43:24.365Z,45.38
2023-01-19T00:45:51.559Z,45.85
2023-01-19T00:48:19.178Z,44.45
2023-01-19T00:50:47.640Z,46.33
2023-01-19T00:53:15.114Z,43.42
2023-01-19T00:55:42.255Z,54.53
2023-01-19T00:58:09.941Z,63.75
2023-01-19T01:00:37.387Z,65.10
2023-01-19T01:03:05.325Z,49.08
2023-01-19T01:05:32.933Z,43.97
2023-01-19T01:08:00.446Z,67.25
2023-01-19T01:10:29.516Z,50.70
2023-01-19T01:13:23.746Z,45.92
2023-01-19T01:15:44.302Z,49.67
2023-01-19T01:18:11.697Z,58.67
2023-01-19T01:20:38.831Z,52.60
2023-01-19T01:23:06.250Z,43.45
2023-01-19T01:25:37.749Z,42.20
2023-01-19T01:28:08.695Z,55.05
2023-01-19T01:30:40.047Z,70.10
2023-01-19T01:33:08.285Z,60.72
2023-01-19T01:35:35.436Z,47.58
2023-01-19T01:38:02.982Z,45.20
2023-01-19T01:40:30.341Z,46.70
2023-01-19T01:42:58.093Z,46.97
2023-01-19T01:45:35.329Z,49.25
2023-01-19T01:48:12.626Z,47.55
2023-01-19T01:51:24.483Z,44.63
2023-01-19T01:54:06.801Z,49.65
2023-01-19T01:56:43.833Z,48.00
2023-01-19T01:59:39.222Z,47.40
2023-01-19T02:02:29.873Z,45.30
2023-01-19T02:05:05.896Z,44.88
2023-01-19T02:08:02.294Z,46.50
2023-01-19T02:10:48.486Z,45.92
2023-01-19T02:13:21.715Z,46.25
2023-01-19T02:15:52.339Z,46.40
2023-01-19T02:18:24.670Z,48.25
2023-01-19T02:20:57.888Z,46.53
2023-01-19T02:23:45.193Z,46.55
2023-01-19T02:26:22.189Z,46.22
2023-01-19T02:28:57.582Z,45.03
2023-01-19T02:31:27.261Z,45.03
2023-01-19T02:33:56.102Z,47.55
2023-01-19T02:36:27.258Z,47.05
2023-01-19T02:38:57.637Z,48.45
2023-01-19T02:41:29.057Z,47.88
2023-01-19T02:43:58.015Z,44.15
2023-01-19T02:46:25.886Z,41.85
2023-01-19T02:48:53.060Z,41.88
2023-01-19T02:51:24.115Z,48.58
2023-01-19T02:54:08.647Z,46.60
2023-01-19T02:56:51.008Z,45.75
2023-01-19T02:59:26.742Z,45.08
2023-01-19T03:02:24.650Z,46.10
2023-01-19T03:05:12.582Z,44.90
2023-01-19T03:07:53.276Z,45.03
2023-01-19T03:11:05.564Z,43.88
2023-01-19T03:13:54.031Z,47.13
2023-01-19T03:16:27.877Z,49.25
2023-01-19T03:19:01.705Z,47.42
2023-01-19T03:21:30.871Z,57.20
2023-01-19T03:24:03.067Z,49.45
2023-01-19T03:26:36.637Z,51.80
2023-01-19T03:29:06.986Z,46.85
2023-01-19T03:31:35.532Z,43.70
2023-01-19T03:34:07.995Z,46.28
2023-01-19T03:36:44.444Z,47.30
2023-01-19T03:39:15.699Z,45.00
2023-01-19T03:41:45.185Z,46.63
2023-01-19T03:44:13.728Z,46.83
2023-01-19T03:46:41.429Z,45.40
2023-01-19T03:49:09.965Z,44.58
2023-01-19T03:51:40.206Z,48.20
2023-01-19T03:54:09.628Z,46.45
2023-01-19T03:56:37.722Z,43.88
2023-01-19T03:59:08.058Z,44.42
2023-01-19T04:01:35.272Z,42.22
2023-01-19T04:04:02.736Z,44.67
2023-01-19T04:06:30.192Z,43.65
2023-01-19T04:08:57.627Z,45.60
2023-01-19T04:11:24.781Z,44.40
2023-01-19T04:13:52.206Z,41.15
2023-01-19T04:16:21.264Z,45.90
2023-01-19T04:18:49.514Z,46.10
2023-01-19T04:21:17.162Z,45.10
2023-01-19T04:23:46.008Z,44.88
2023-01-19T04:26:13.432Z,45.85
2023-01-19T04:28:41.110Z,42.95
2023-01-19T04:31:08.674Z,43.17
2023-01-19T04:33:36.132Z,43.75
2023-01-19T04:36:04.213Z,43.28
2023-01-19T04:38:31.668Z,44.10
2023-01-19T04:40:58.802Z,47.72
2023-01-19T04:43:26.272Z,44.58
2023-01-19T04:45:53.404Z,45.50
2023-01-19T04:48:20.868Z,43.92
2023-01-19T04:50:48.031Z,44.00
2023-01-19T04:53:16.550Z,41.28
2023-01-19T04:55:44.049Z,44.63
2023-01-19T04:58:11.425Z,42.53
2023-01-19T05:00:38.730Z,42.80
2023-01-19T05:03:06.447Z,44.55
2023-01-19T05:05:34.165Z,46.47
2023-01-19T05:08:01.761Z,44.85
2023-01-19T05:10:29.154Z,44.00
2023-01-19T05:12:57.019Z,44.22
2023-01-19T05:15:24.261Z,46.63
2023-01-19T05:17:52.944Z,45.28
2023-01-19T05:20:20.082Z,48.10
2023-01-19T05:22:51.624Z,48.45
2023-01-19T05:25:19.274Z,48.33
2023-01-19T05:27:46.845Z,46.83
2023-01-19T05:30:14.581Z,48.17
2023-01-19T05:32:42.080Z,48.78
2023-01-19T05:35:09.768Z,48.17
2023-01-19T05:37:37.192Z,47.47
2023-01-19T05:40:05.170Z,48.58
2023-01-19T05:42:33.016Z,46.58
2023-01-19T05:45:00.406Z,48.05
2023-01-19T05:47:30.055Z,48.92
2023-01-19T05:49:57.685Z,49.40
2023-01-19T05:52:25.262Z,48.30
2023-01-19T05:54:54.651Z,48.72
2023-01-19T05:57:23.007Z,47.83
2023-01-19T05:59:50.321Z,48.35
2023-01-19T06:02:18.147Z,49.05
2023-01-19T06:04:45.309Z,48.03
2023-01-19T06:07:12.725Z,51.08
2023-01-19T06:09:39.925Z,50.78
2023-01-19T06:12:07.495Z,54.17
2023-01-19T06:14:36.935Z,53.17
2023-01-19T06:17:06.170Z,51.95
2023-01-19T06:19:34.667Z,55.20
2023-01-19T06:22:02.829Z,55.60
2023-01-19T06:24:30.269Z,56.47
2023-01-19T06:26:57.641Z,58.47
2023-01-19T06:29:25.894Z,57.40
2023-01-19T06:31:54.641Z,58.63
2023-01-19T06:34:21.940Z,59.03
2023-01-19T06:36:50.694Z,59.28
2023-01-19T06:39:17.970Z,56.05
2023-01-19T06:41:45.520Z,59.90
2023-01-19T06:44:12.793Z,60.17
2023-01-19T06:46:40.285Z,61.83
2023-01-19T06:49:08.095Z,62.03
2023-01-19T06:51:35.720Z,64.13
2023-01-19T06:54:03.093Z,64.93
2023-01-19T06:56:30.531Z,63.30
2023-01-19T06:58:58.115Z,61.85
2023-01-19T07:01:26.906Z,64.07
2023-01-19T07:03:54.572Z,62.40
2023-01-19T07:06:22.175Z,60.78
2023-01-19T07:08:49.367Z,62.70
2023-01-19T07:11:25.713Z,61.58
2023-01-19T07:13:58.015Z,55.53
2023-01-19T07:16:25.579Z,57.38
2023-01-19T07:18:52.913Z,53.58
2023-01-19T07:21:20.473Z,52.88
2023-01-19T07:23:51.888Z,55.40
2023-01-19T07:26:21.389Z,56.42
2023-01-19T07:28:49.761Z,59.17
2023-01-19T07:31:18.338Z,56.55
2023-01-19T07:33:46.769Z,60.47
2023-01-19T07:36:15.354Z,54.03
2023-01-19T07:38:42.526Z,58.83
2023-01-19T07:41:10.628Z,56.65
2023-01-19T07:43:37.935Z,58.30
2023-01-19T07:46:08.444Z,62.28
2023-01-19T07:48:35.802Z,65.95
2023-01-19T07:51:05.759Z,65.75
2023-01-19T07:53:33.140Z,63.15
2023-01-19T07:56:00.722Z,58.47
2023-01-19T07:58:28.234Z,59.63
2023-01-19T08:00:55.815Z,58.53
2023-01-19T08:03:23.218Z,62.97
2023-01-19T08:05:52.729Z,69.07
2023-01-19T08:08:20.341Z,69.07
2023-01-19T08:10:51.072Z,66.18
2023-01-19T08:13:18.703Z,73.45
2023-01-19T08:15:50.524Z,62.70
2023-01-19T08:18:18.239Z,64.10
2023-01-19T08:20:46.112Z,64.45
2023-01-19T08:23:13.253Z,76.18
2023-01-19T08:25:46.539Z,76.85
2023-01-19T08:28:16.180Z,66.72
2023-01-19T08:30:45.013Z,61.72
2023-01-19T08:33:13.345Z,62.67
2023-01-19T08:35:43.167Z,60.60
2023-01-19T08:38:10.895Z,63.20
2023-01-19T08:40:40.607Z,57.60
2023-01-19T08:43:16.582Z,59.03
2023-01-19T08:45:48.218Z,57.00
2023-01-19T08:48:16.994Z,56.47
2023-01-19T08:50:47.130Z,57.08
2023-01-19T08:53:14.738Z,53.60
2023-01-19T08:55:42.775Z,56.03
2023-01-19T08:58:10.170Z,53.33
2023-01-19T09:00:39.323Z,55.35
2023-01-19T09:03:09.621Z,80.10
2023-01-19T09:05:38.708Z,51.03
2023-01-19T09:08:09.216Z,106.55
2023-01-19T09:10:38.082Z,45.85
2023-01-19T09:13:08.295Z,48.55
2023-01-19T09:15:37.692Z,49.95
2023-01-19T09:18:07.433Z,49.50
2023-01-19T09:20:36.225Z,48.75
2023-01-19T09:23:03.892Z,47.38
2023-01-19T09:25:32.700Z,54.35
2023-01-19T09:28:00.840Z,41.25
2023-01-19T09:30:28.546Z,45.60
2023-01-19T09:32:55.685Z,51.20
2023-01-19T09:35:23.076Z,47.55
2023-01-19T09:37:50.390Z,46.17
2023-01-19T09:40:20.603Z,49.55
2023-01-19T09:42:56.260Z,47.38
2023-01-19T09:45:39.756Z,50.42
2023-01-19T09:48:33.522Z,50.05
2023-01-19T09:51:07.672Z,58.42
2023-01-19T09:54:04.595Z,55.13
2023-01-19T09:56:33.013Z,51.13
2023-01-19T09:59:01.608Z,50.67
2023-01-19T10:01:46.848Z,50.10
2023-01-19T10:04:41.427Z,57.58
2023-01-19T10:07:08.936Z,51.90
2023-01-19T10:10:13.193Z,55.20
2023-01-19T10:13:17.956Z,49.65
2023-01-19T10:16:09.692Z,52.20
2023-01-19T10:18:48.590Z,55.65
2023-01-19T10:21:37.851Z,58.83
2023-01-19T10:24:16.213Z,61.55
2023-01-19T10:26:48.696Z,57.38
2023-01-19T10:29:21.655Z,59.92
2023-01-19T10:31:51.855Z,56.60
2023-01-19T10:34:23.083Z,58.20
2023-01-19T10:36:57.647Z,50.22
2023-01-19T10:39:25.106Z,46.35
2023-01-19T10:41:53.845Z,47.53
2023-01-19T10:44:27.011Z,43.88
2023-01-19T10:46:57.466Z,43.35
2023-01-19T10:49:37.994Z,44.97
2023-01-19T10:52:07.588Z,42.28
2023-01-19T10:54:37.484Z,40.78
2023-01-19T10:57:08.036Z,91.88
2023-01-19T10:59:37.169Z,37.75
2023-01-19T11:02:26.601Z,33.45
2023-01-19T11:04:55.798Z,31.60
2023-01-19T11:07:25.780Z,33.17
2023-01-19T11:10:17.789Z,34.08
2023-01-19T11:13:12.604Z,33.60
2023-01-19T11:15:55.188Z,32.92
2023-01-19T11:18:31.663Z,33.55
2023-01-19T11:21:06.444Z,32.97
2023-01-19T11:23:35.003Z,31.65
2023-01-19T11:26:05.572Z,29.85
2023-01-19T11:28:40.474Z,28.45
2023-01-19T11:31:11.621Z,30.10
2023-01-19T11:33:50.574Z,28.60
2023-01-19T11:36:24.301Z,30.30
2023-01-19T11:38:57.020Z,28.10
2023-01-19T11:41:33.598Z,32.15
2023-01-19T11:44:23.716Z,28.95
2023-01-19T11:46:56.626Z,29.95
2023-01-19T11:49:46.868Z,26.73
2023-01-19T11:52:34.729Z,31.65
2023-01-19T11:55:33.282Z,28.38
2023-01-19T11:58:02.708Z,30.00
2023-01-19T12:00:45.535Z,29.77
2023-01-19T12:03:21.308Z,32.35
2023-01-19T12:05:53.173Z,29.80
2023-01-19T12:08:30.088Z,30.75
2023-01-19T12:10:59.942Z,26.80
2023-01-19T12:13:30.347Z,28.20
2023-01-19T12:16:13.009Z,29.85
2023-01-19T12:18:46.067Z,52.55
2023-01-19T12:21:13.674Z,36.35
2023-01-19T12:23:53.582Z,47.22
2023-01-19T12:26:22.979Z,28.65
2023-01-19T12:28:52.556Z,29.67
2023-01-19T12:31:22.092Z,28.27
2023-01-19T12:33:50.469Z,33.85
2023-01-19T12:36:26.751Z,29.25
2023-01-19T12:38:55.167Z,30.08
2023-01-19T12:41:47.248Z,29.75
2023-01-19T12:44:21.449Z,30.42
2023-01-19T12:46:50.213Z,27.58
2023-01-19T12:49:22.573Z,28.63
2023-01-19T12:51:52.056Z,32.40
2023-01-19T12:54:29.856Z,27.35
2023-01-19T12:57:02.204Z,31.60
2023-01-19T12:59:34.781Z,31.70
2023-01-19T13:08:07.822Z,43.40
2023-01-19T13:11:00.092Z,29.55
2023-01-19T13:13:38.244Z,32.33
2023-01-19T13:16:21.234Z,31.52
2023-01-19T13:19:15.400Z,29.17
2023-01-19T13:21:48.462Z,30.15
2023-01-19T13:24:19.107Z,27.00
2023-01-19T13:26:49.369Z,26.55
2023-01-19T13:29:39.797Z,25.70
2023-01-19T13:32:16.003Z,23.95
2023-01-19T13:34:49.571Z,27.50
2023-01-19T13:37:39.382Z,28.20
2023-01-19T13:40:07.648Z,29.20
2023-01-19T13:42:40.859Z,27.08
2023-01-19T13:45:34.508Z,28.42
2023-01-19T13:48:06.493Z,26.05
2023-01-19T13:50:37.346Z,28.08
2023-01-19T13:53:20.761Z,27.27
2023-01-19T13:55:48.175Z,23.55
2023-01-19T13:58:26.045Z,23.02
2023-01-19T14:00:53.213Z,28.23
2023-01-19T14:03:23.722Z,25.75
2023-01-19T14:05:53.435Z,27.13
2023-01-19T14:08:22.324Z,29.67
2023-01-19T14:10:56.315Z,27.77
2023-01-19T14:13:26.329Z,30.60
2023-01-19T14:15:56.509Z,31.50
2023-01-19T14:18:26.970Z,31.42
2023-01-19T14:21:14.259Z,31.40
2023-01-19T14:23:50.058Z,30.60
2023-01-19T14:26:43.634Z,31.50
2023-01-19T14:29:33.514Z,34.75
2023-01-19T14:32:00.670Z,33.78
2023-01-19T14:34:42.112Z,30.92
2023-01-19T14:37:28.271Z,33.75
2023-01-19T14:39:57.620Z,37.15
2023-01-19T14:42:37.873Z,28.98
2023-01-19T14:45:16.291Z,32.55
2023-01-19T14:47:45.468Z,28.95
2023-01-19T14:50:19.609Z,31.35
2023-01-19T14:53:08.333Z,32.63
2023-01-19T14:55:44.211Z,37.13
2023-01-19T14:58:13.793Z,39.72
2023-01-19T15:00:42.718Z,43.95
2023-01-19T15:03:10.242Z,34.67
2023-01-19T15:05:39.837Z,33.75
2023-01-19T15:08:07.874Z,33.17
2023-01-19T15:10:36.420Z,33.95
2023-01-19T15:13:04.881Z,39.33
2023-01-19T15:15:34.387Z,38.05
2023-01-19T15:18:04.400Z,49.50
2023-01-19T15:20:31.957Z,52.53
2023-01-19T15:22:59.166Z,39.47
2023-01-19T15:25:26.961Z,43.15
2023-01-19T15:27:58.446Z,44.35
2023-01-19T15:30:30.806Z,41.47
2023-01-19T15:32:58.960Z,41.45
2023-01-19T15:35:26.622Z,42.88
2023-01-19T15:37:54.372Z,41.95
2023-01-19T15:40:23.226Z,46.28
2023-01-19T15:42:50.851Z,44.78
2023-01-19T15:45:24.460Z,43.03
2023-01-19T15:47:51.972Z,43.95
2023-01-19T15:50:20.184Z,46.35
2023-01-19T15:52:47.406Z,51.15
2023-01-19T15:55:15.965Z,56.85
2023-01-19T15:57:43.434Z,41.33
2023-01-19T16:00:11.361Z,42.72
2023-01-19T16:02:39.418Z,40.72
2023-01-19T16:05:07.727Z,41.50
2023-01-19T16:07:35.240Z,44.90
2023-01-19T16:10:03.057Z,49.80
2023-01-19T16:12:30.304Z,44.25
2023-01-19T16:14:57.870Z,48.35
2023-01-19T16:17:25.040Z,46.80
2023-01-19T16:19:52.187Z,33.92
2023-01-19T16:22:19.652Z,37.88
2023-01-19T16:24:46.828Z,34.67
2023-01-19T16:27:14.260Z,36.50
2023-01-19T16:29:41.479Z,40.60
2023-01-19T16:32:08.992Z,35.22
2023-01-19T16:34:36.327Z,39.17
2023-01-19T16:37:03.789Z,32.80
2023-01-19T16:39:30.941Z,37.40
2023-01-19T16:41:58.417Z,38.65
2023-01-19T16:44:25.939Z,37.10
2023-01-19T16:46:54.377Z,36.28
2023-01-19T16:49:28.372Z,36.55
2023-01-19T16:51:58.369Z,31.20
2023-01-19T16:54:26.779Z,35.70
2023-01-19T16:56:55.897Z,33.13
2023-01-19T16:59:23.561Z,35.15
2023-01-19T17:01:52.029Z,36.78
2023-01-19T17:04:21.356Z,40.17
2023-01-19T17:06:49.905Z,32.47
2023-01-19T17:09:17.685Z,37.58
2023-01-19T17:11:46.018Z,37.67
2023-01-19T17:14:15.768Z,40.90
2023-01-19T17:16:44.145Z,37.05
2023-01-19T17:19:15.693Z,34.80
2023-01-19T17:21:48.833Z,36.30
2023-01-19T17:24:17.162Z,35.17
2023-01-19T17:26:46.026Z,38.55
2023-01-19T17:29:13.494Z,40.83
2023-01-19T17:31:41.198Z,38.15
2023-01-19T17:34:09.794Z,41.42
2023-01-19T17:36:38.001Z,40.20
2023-01-19T17:39:08.224Z,45.40
2023-01-19T17:41:36.204Z,42.50
2023-01-19T17:44:05.438Z,47.88
2023-01-19T17:46:36.413Z,40.78
2023-01-19T17:49:05.922Z,36.17
2023-01-19T17:51:33.742Z,42.35
2023-01-19T17:54:01.155Z,44.60
2023-01-19T17:56:32.244Z,45.72
2023-01-19T17:58:59.817Z,47.95
2023-01-19T18:01:31.882Z,48.70
2023-01-19T18:04:00.981Z,45.85
2023-01-19T18:06:28.537Z,41.20
2023-01-19T18:08:57.375Z,44.10
2023-01-19T18:11:25.490Z,44.95
2023-01-19T18:13:53.336Z,43.50
2023-01-19T18:16:26.889Z,49.03
2023-01-19T18:18:56.073Z,42.10
2023-01-19T18:21:27.553Z,41.72
2023-01-19T18:24:00.639Z,40.88
2023-01-19T18:26:29.144Z,42.05
2023-01-19T18:28:57.385Z,46.08
2023-01-19T18:31:26.173Z,45.63
2023-01-19T18:33:53.720Z,44.28
2023-01-19T18:36:21.396Z,46.97
2023-01-19T18:38:49.588Z,51.50
2023-01-19T18:41:19.040Z,57.92
2023-01-19T18:43:46.887Z,50.80
2023-01-19T18:46:15.117Z,48.65
2023-01-19T18:48:42.525Z,53.17
2023-01-19T18:51:14.509Z,55.22
2023-01-19T18:53:42.180Z,47.50
2023-01-19T18:56:12.809Z,49.70
2023-01-19T18:58:40.424Z,49.67
2023-01-19T19:01:38.124Z,44.92
2023-01-19T19:04:05.755Z,47.22
2023-01-19T19:06:34.217Z,53.78
2023-01-19T19:09:01.464Z,45.28
2023-01-19T19:11:29.045Z,53.88
2023-01-19T19:13:59.548Z,56.88
2023-01-19T19:16:28.926Z,64.13
2023-01-19T19:18:56.329Z,54.67
2023-01-19T19:21:25.391Z,51.97
2023-01-19T19:23:55.486Z,56.90
2023-01-19T19:26:24.125Z,57.80
2023-01-19T19:28:51.372Z,59.60
2023-01-19T19:31:21.205Z,57.47
2023-01-19T19:33:49.113Z,69.22
2023-01-19T19:36:17.171Z,56.15
2023-01-19T19:38:47.683Z,53.58
2023-01-19T19:41:22.116Z,47.88
2023-01-19T19:43:50.131Z,45.97
2023-01-19T19:46:20.153Z,47.30
2023-01-19T19:48:48.748Z,50.25
2023-01-19T19:51:22.676Z,47.72
2023-01-19T19:53:51.872Z,41.53
2023-01-19T19:56:22.619Z,45.60
2023-01-19T19:58:51.928Z,45.35
2023-01-19T20:01:23.994Z,48.75
2023-01-19T20:03:52.458Z,49.72
2023-01-19T20:06:22.111Z,46.58
2023-01-19T20:08:51.031Z,50.25
2023-01-19T20:11:23.486Z,50.65
2023-01-19T20:13:50.881Z,57.83
2023-01-19T20:16:20.691Z,51.70
2023-01-19T20:18:54.308Z,48.53
2023-01-19T20:21:25.517Z,48.95
2023-01-19T20:23:53.702Z,51.35
2023-01-19T20:26:25.366Z,52.05
2023-01-19T20:28:53.912Z,58.67
2023-01-19T20:31:30.569Z,60.22
2023-01-19T20:33:59.772Z,59.38
2023-01-19T20:36:28.941Z,51.10
2023-01-19T20:38:57.431Z,59.72
2023-01-19T20:41:25.705Z,53.67
2023-01-19T20:43:53.243Z,57.63
2023-01-19T20:46:21.020Z,61.00
2023-01-19T20:48:52.885Z,58.80
2023-01-19T20:53:48.404Z,47.30
2023-01-19T20:56:16.296Z,54.60
2023-01-19T20:58:43.834Z,57.67
2023-01-19T21:01:13.913Z,49.78
2023-01-19T21:03:41.816Z,58.33
2023-01-19T21:06:10.030Z,58.15
2023-01-19T21:08:38.190Z,51.00
2023-01-19T21:11:06.486Z,53.25
2023-01-19T21:13:34.417Z,51.67
2023-01-19T21:16:02.366Z,55.80
2023-01-19T21:18:29.676Z,56.03
2023-01-19T21:20:57.796Z,61.50
2023-01-19T21:23:27.344Z,59.67
2023-01-19T21:25:57.304Z,64.68
2023-01-19T21:28:25.754Z,58.55
2023-01-19T21:30:54.878Z,64.93
2023-01-19T21:33:23.052Z,62.50
2023-01-19T21:35:55.483Z,63.05
2023-01-19T21:38:23.910Z,66.30
2023-01-19T21:40:51.471Z,65.80
2023-01-19T21:43:20.048Z,62.78
2023-01-19T21:45:48.872Z,62.45
2023-01-19T21:48:17.249Z,65.80
2023-01-19T21:50:45.021Z,62.72
2023-01-19T21:53:12.416Z,63.05
2023-01-19T21:55:44.631Z,68.00
2023-01-19T21:58:11.800Z,62.15
2023-01-19T22:00:39.370Z,61.78
2023-01-19T22:03:06.579Z,64.35
2023-01-19T22:05:36.780Z,64.82
2023-01-19T22:08:06.338Z,60.28
2023-01-19T22:10:37.816Z,63.90
2023-01-19T22:13:06.766Z,62.03
2023-01-19T22:15:34.414Z,60.20
2023-01-19T22:18:01.738Z,61.85
2023-01-19T22:20:29.314Z,66.35
2023-01-19T22:22:57.241Z,64.47
2023-01-19T22:25:27.583Z,59.13
2023-01-19T22:27:55.810Z,65.25
2023-01-19T22:30:23.618Z,58.60
2023-01-19T22:32:50.855Z,60.83
2023-01-19T22:35:18.453Z,62.10
2023-01-19T22:37:45.575Z,55.17
2023-01-19T22:40:13.224Z,57.58
2023-01-19T22:42:40.454Z,55.00
2023-01-19T22:45:08.539Z,55.53
2023-01-19T22:47:38.779Z,57.10
2023-01-19T22:50:06.891Z,54.63
2023-01-19T22:52:34.116Z,56.13
2023-01-19T22:55:01.492Z,58.40
2023-01-19T22:57:34.309Z,56.85
2023-01-19T23:00:02.098Z,54.35
2023-01-19T23:02:29.293Z,54.72
2023-01-19T23:04:56.782Z,55.17
2023-01-19T23:07:24.095Z,51.65
2023-01-19T23:09:51.535Z,53.58
2023-01-19T23:12:18.734Z,58.70
2023-01-19T23:14:46.170Z,56.65
2023-01-19T23:17:13.312Z,52.03
2023-01-19T23:19:40.749Z,52.08
2023-01-19T23:22:08.060Z,50.20
2023-01-19T23:24:35.848Z,47.00
2023-01-19T23:27:03.130Z,39.88
2023-01-19T23:29:30.777Z,40.22
2023-01-19T23:31:58.070Z,40.10
2023-01-19T23:34:25.794Z,45.50
2023-01-19T23:36:52.961Z,43.45
2023-01-19T23:39:22.797Z,39.03
2023-01-19T23:41:50.308Z,39.72
2023-01-19T23:44:18.320Z,38.83
2023-01-19T23:46:46.559Z,36.78
2023-01-19T23:49:14.212Z,38.13
2023-01-19T23:51:41.818Z,35.53
2023-01-19T23:54:09.314Z,38.65
2023-01-19T23:56:38.268Z,35.85
2023-01-19T23:59:08.644Z,32.97
